In Rescue
 
Open Full Screen Window  High Contrast Mode
Wind Gusting 16 knots
09
May 20, 2019 3:31 PM EDT
Weather Information
Wind Direction
  340 °
Wind Speed
  09 kt (10 mph)
Wind Gust
  16 kt (18 mph)
Altimeter
30.02 in
Visibility
10 SM
Temperature
10° C
50° F
Dewpoint
05° C
41° F
Humidity
71%
Sky Condition
Overcast @ 2,300 ft
Broken @ 1,800 ft
MVFR

METAR KCAD 201931Z AUTO 34009G16KT 10SM BKN018 OVC023 10/05 A3002 RMK AO2 T01010048

FAA Disclaimer: The data displayed is for advisory purposes only and is not to be used for flight planning or operations.